createdAt,value
2023-05-05T04:00:34.633Z,10.43
2023-05-05T04:01:35.597Z,10.42
2023-05-05T04:02:35.639Z,10.37
2023-05-05T04:03:35.642Z,10.39
2023-05-05T04:04:35.599Z,10.42
2023-05-05T04:05:35.571Z,10.42
2023-05-05T04:06:35.563Z,10.40
2023-05-05T04:07:35.547Z,10.39
2023-05-05T04:08:35.525Z,10.39
2023-05-05T04:09:35.531Z,10.43
2023-05-05T04:10:35.500Z,10.42
2023-05-05T04:11:35.488Z,10.42
2023-05-05T04:12:35.536Z,10.43
2023-05-05T04:13:35.499Z,10.43
2023-05-05T04:14:35.464Z,10.40
2023-05-05T04:15:35.477Z,10.37
2023-05-05T04:16:35.441Z,10.37
2023-05-05T04:17:35.456Z,10.40
2023-05-05T04:18:35.417Z,10.40
2023-05-05T04:19:35.397Z,10.40
2023-05-05T04:20:35.406Z,10.40
2023-05-05T04:21:35.386Z,10.40
2023-05-05T04:22:35.400Z,10.42
2023-05-05T04:23:35.408Z,10.44
2023-05-05T04:24:35.347Z,10.39
2023-05-05T04:25:35.336Z,10.42
2023-05-05T04:26:35.335Z,10.34
2023-05-05T04:27:35.353Z,10.40
2023-05-05T04:28:35.318Z,10.39
2023-05-05T04:29:35.316Z,10.39
2023-05-05T04:30:35.317Z,10.40
2023-05-05T04:31:35.282Z,10.46
2023-05-05T04:32:35.324Z,10.42
2023-05-05T04:33:35.256Z,10.40
2023-05-05T04:34:35.244Z,10.42
2023-05-05T04:35:35.263Z,10.44
2023-05-05T04:36:35.230Z,10.51
2023-05-05T04:37:35.199Z,10.56
2023-05-05T04:38:35.289Z,10.53
2023-05-05T04:39:35.187Z,10.53
2023-05-05T04:40:35.179Z,10.55
2023-05-05T04:41:35.162Z,10.52
2023-05-05T04:42:35.160Z,10.56
2023-05-05T04:43:35.145Z,10.56
2023-05-05T04:44:35.157Z,10.58
2023-05-05T04:45:35.112Z,10.56
2023-05-05T04:46:35.172Z,10.59
2023-05-05T04:47:35.115Z,10.60
2023-05-05T04:48:35.112Z,10.55
2023-05-05T04:49:35.081Z,10.56
2023-05-05T04:50:35.083Z,10.62
2023-05-05T04:51:35.049Z,10.59
2023-05-05T04:52:35.053Z,10.63
2023-05-05T04:53:35.038Z,10.65
2023-05-05T04:54:35.018Z,10.68
2023-05-05T04:55:35.001Z,10.66
2023-05-05T04:56:35.035Z,10.71
2023-05-05T04:57:35.005Z,10.70
2023-05-05T04:58:34.989Z,10.74
2023-05-05T04:59:34.961Z,10.77
2023-05-05T05:00:34.960Z,10.76
2023-05-05T05:01:37.783Z,10.78
2023-05-05T05:02:35.003Z,10.78
2023-05-05T05:03:35.002Z,10.78
2023-05-05T05:04:34.915Z,10.84
2023-05-05T05:05:34.908Z,10.83
2023-05-05T05:06:34.880Z,10.88
2023-05-05T05:07:34.876Z,10.91
2023-05-05T05:08:34.876Z,10.89
2023-05-05T05:09:34.858Z,10.92
2023-05-05T05:10:34.850Z,10.98
2023-05-05T05:11:34.849Z,10.99
2023-05-05T05:12:34.888Z,10.98
2023-05-05T05:13:34.810Z,11.03
2023-05-05T05:14:34.793Z,11.06
2023-05-05T05:15:34.794Z,11.11
2023-05-05T05:16:34.812Z,11.16
2023-05-05T05:17:34.798Z,11.14
2023-05-05T05:18:34.789Z,11.17
2023-05-05T05:19:34.739Z,11.20
2023-05-05T05:20:34.741Z,11.27
2023-05-05T05:21:34.719Z,11.24
2023-05-05T05:22:34.716Z,11.16
2023-05-05T05:23:34.696Z,11.21
2023-05-05T05:24:34.731Z,11.24
2023-05-05T05:25:34.716Z,11.32
2023-05-05T05:26:34.681Z,11.31
2023-05-05T05:27:34.663Z,11.36
2023-05-05T05:28:34.656Z,11.41
2023-05-05T05:29:34.646Z,11.44
2023-05-05T05:30:34.643Z,11.46
2023-05-05T05:31:34.664Z,11.50
2023-05-05T05:32:34.620Z,11.47
2023-05-05T05:33:34.599Z,11.47
2023-05-05T05:34:34.584Z,11.50
2023-05-05T05:35:34.590Z,11.50
2023-05-05T05:36:34.553Z,11.54
2023-05-05T05:37:34.551Z,11.56
2023-05-05T05:38:34.560Z,11.61
2023-05-05T05:39:34.527Z,11.61
2023-05-05T05:40:34.574Z,11.64
2023-05-05T05:41:34.510Z,11.77
2023-05-05T05:42:34.491Z,11.80
2023-05-05T05:43:34.496Z,11.83
2023-05-05T05:44:34.483Z,11.89
2023-05-05T05:45:34.452Z,11.96
2023-05-05T05:46:34.525Z,11.94
2023-05-05T05:47:34.473Z,11.90
2023-05-05T05:48:34.425Z,11.94
2023-05-05T05:49:34.409Z,11.97
2023-05-05T05:50:34.397Z,12.04
2023-05-05T05:51:34.389Z,12.11
2023-05-05T05:52:34.377Z,12.09
2023-05-05T05:53:34.396Z,12.12
2023-05-05T05:54:34.393Z,12.16
2023-05-05T05:55:34.352Z,12.24
2023-05-05T05:56:34.361Z,12.29
2023-05-05T05:57:34.353Z,12.30
2023-05-05T05:58:34.307Z,12.33
2023-05-05T05:59:34.302Z,12.38
2023-05-05T06:00:34.344Z,12.37
2023-05-05T06:01:34.284Z,12.41
2023-05-05T06:02:34.373Z,12.46
2023-05-05T06:03:34.428Z,12.56
2023-05-05T06:04:34.335Z,12.63
2023-05-05T06:05:34.241Z,12.69
2023-05-05T06:06:34.253Z,12.69
2023-05-05T06:07:35.560Z,12.78
2023-05-05T06:08:34.465Z,12.78
2023-05-05T06:09:34.227Z,12.84
2023-05-05T06:10:34.539Z,12.88
2023-05-05T06:11:34.202Z,12.95
2023-05-05T06:12:34.184Z,12.95
2023-05-05T06:13:34.135Z,12.95
2023-05-05T06:14:34.141Z,12.96
2023-05-05T06:15:34.113Z,12.87
2023-05-05T06:16:34.211Z,12.85
2023-05-05T06:17:34.105Z,12.85
2023-05-05T06:18:34.101Z,12.88
2023-05-05T06:19:34.080Z,12.92
2023-05-05T06:20:34.086Z,12.97
2023-05-05T06:21:34.044Z,12.97
2023-05-05T06:22:34.048Z,13.07
2023-05-05T06:23:34.049Z,13.07
2023-05-05T06:24:34.178Z,13.17
2023-05-05T06:25:34.016Z,13.25
2023-05-05T06:26:33.998Z,13.37
2023-05-05T06:27:34.013Z,13.49
2023-05-05T06:28:33.983Z,13.56
2023-05-05T06:29:33.971Z,13.67
2023-05-05T06:30:33.960Z,13.79
2023-05-05T06:31:33.998Z,14.10
2023-05-05T06:32:34.013Z,14.35
2023-05-05T06:33:33.928Z,14.57
2023-05-05T06:34:33.923Z,14.62
2023-05-05T06:35:33.909Z,14.64
2023-05-05T06:36:33.898Z,14.93
2023-05-05T06:37:33.894Z,14.95
2023-05-05T06:38:33.856Z,15.01
2023-05-05T06:39:33.856Z,14.98
2023-05-05T06:40:33.840Z,14.98
2023-05-05T06:41:33.834Z,15.11
2023-05-05T06:42:33.828Z,15.23
2023-05-05T06:43:33.818Z,15.30
2023-05-05T06:44:33.797Z,15.39
2023-05-05T06:45:33.804Z,15.56
2023-05-05T06:46:33.861Z,15.67
2023-05-05T06:47:33.801Z,15.85
2023-05-05T06:48:33.816Z,16.00
2023-05-05T06:49:33.832Z,15.97
2023-05-05T06:50:33.732Z,16.25
2023-05-05T06:51:33.726Z,16.49
2023-05-05T06:52:33.703Z,16.67
2023-05-05T06:53:33.738Z,16.80
2023-05-05T06:54:33.742Z,16.96
2023-05-05T06:55:33.672Z,17.08
2023-05-05T06:56:33.684Z,17.06
2023-05-05T06:57:33.670Z,17.06
2023-05-05T06:58:33.647Z,17.10
2023-05-05T06:59:33.637Z,16.96
2023-05-05T07:00:33.686Z,16.81
2023-05-05T07:01:33.654Z,16.37
2023-05-05T07:02:33.723Z,16.30
2023-05-05T07:03:33.689Z,16.27
2023-05-05T07:04:33.585Z,16.25
2023-05-05T07:05:33.556Z,16.12
2023-05-05T07:06:33.568Z,15.99
2023-05-05T07:07:33.566Z,15.93
2023-05-05T07:08:33.533Z,15.96
2023-05-05T07:09:33.541Z,15.92
2023-05-05T07:10:33.518Z,15.85
2023-05-05T07:11:33.607Z,15.89
2023-05-05T07:12:33.582Z,15.94
2023-05-05T07:13:33.524Z,16.16
2023-05-05T07:14:33.487Z,16.18
2023-05-05T07:15:33.508Z,16.27
2023-05-05T07:16:33.519Z,16.41
2023-05-05T07:17:33.562Z,16.48
2023-05-05T07:18:33.431Z,16.68
2023-05-05T07:19:33.634Z,16.75
2023-05-05T07:20:33.431Z,16.85
2023-05-05T07:21:33.399Z,16.85
2023-05-05T07:22:33.395Z,16.99
2023-05-05T07:23:33.388Z,17.13
2023-05-05T07:24:33.362Z,17.28
2023-05-05T07:25:33.355Z,17.47
2023-05-05T07:26:33.350Z,17.71
2023-05-05T07:27:33.359Z,17.84
2023-05-05T07:28:33.328Z,17.85
2023-05-05T07:29:33.300Z,17.99
2023-05-05T07:30:33.315Z,18.15
2023-05-05T07:31:33.298Z,18.28
2023-05-05T07:32:33.315Z,18.33
2023-05-05T07:33:33.258Z,18.50
2023-05-05T07:34:33.263Z,18.61
2023-05-05T07:35:33.249Z,18.46
2023-05-05T07:36:33.247Z,18.24
2023-05-05T07:37:33.230Z,18.10
2023-05-05T07:38:33.202Z,17.94
2023-05-05T07:39:33.198Z,18.03
2023-05-05T07:40:33.198Z,18.15
2023-05-05T07:41:33.184Z,18.21
2023-05-05T07:42:33.160Z,18.36
2023-05-05T07:43:33.145Z,18.18
2023-05-05T07:44:33.144Z,18.12
2023-05-05T07:45:33.144Z,17.91
2023-05-05T07:46:33.169Z,18.02
2023-05-05T07:47:33.110Z,18.33
2023-05-05T07:48:33.148Z,18.61
2023-05-05T07:49:33.093Z,18.84
2023-05-05T07:50:33.077Z,18.68
2023-05-05T07:51:34.599Z,18.83
2023-05-05T07:52:45.193Z,18.91
2023-05-05T07:53:33.043Z,19.01
2023-05-05T07:54:33.025Z,19.06
2023-05-05T07:55:33.012Z,19.10
2023-05-05T07:56:33.016Z,19.17
2023-05-05T07:57:32.977Z,19.10
2023-05-05T07:58:32.993Z,19.13
2023-05-05T07:59:32.961Z,19.05
2023-05-05T08:00:32.980Z,18.98
2023-05-05T08:01:32.948Z,19.02
2023-05-05T08:02:33.030Z,18.91
2023-05-05T08:03:33.076Z,18.83
2023-05-05T08:04:32.938Z,18.92
2023-05-05T08:05:32.896Z,18.97
2023-05-05T08:06:32.888Z,19.06
2023-05-05T08:07:32.882Z,19.01
2023-05-05T08:08:32.883Z,18.90
2023-05-05T08:09:32.855Z,18.83
2023-05-05T08:10:32.875Z,18.76
2023-05-05T08:11:32.845Z,18.70
2023-05-05T08:12:32.847Z,18.61
2023-05-05T08:13:32.839Z,18.68
2023-05-05T08:14:32.808Z,18.79
2023-05-05T08:15:32.799Z,18.82
2023-05-05T08:16:32.900Z,18.73
2023-05-05T08:17:32.794Z,18.55
2023-05-05T08:18:32.764Z,18.21
2023-05-05T08:19:32.764Z,18.12
2023-05-05T08:20:32.731Z,18.13
2023-05-05T08:21:32.727Z,18.17
2023-05-05T08:22:32.746Z,18.39
2023-05-05T08:23:32.723Z,18.50
2023-05-05T08:24:32.714Z,18.61
2023-05-05T08:25:32.688Z,18.52
2023-05-05T08:26:32.678Z,18.64
2023-05-05T08:27:32.672Z,18.54
2023-05-05T08:28:32.668Z,18.61
2023-05-05T08:29:32.700Z,18.65
2023-05-05T08:30:32.622Z,18.72
2023-05-05T08:31:32.663Z,18.61
2023-05-05T08:32:32.625Z,18.55
2023-05-05T08:33:32.599Z,18.61
2023-05-05T08:34:32.611Z,18.46
2023-05-05T08:35:32.641Z,18.33
2023-05-05T08:36:32.561Z,18.34
2023-05-05T08:37:32.551Z,18.09
2023-05-05T08:38:32.531Z,18.07
2023-05-05T08:39:32.572Z,18.10
2023-05-05T08:40:32.601Z,18.17
2023-05-05T08:41:32.549Z,18.29
2023-05-05T08:42:36.981Z,18.31
2023-05-05T08:43:32.495Z,18.36
2023-05-05T08:44:32.513Z,18.47
2023-05-05T08:45:32.453Z,18.40
2023-05-05T08:46:32.540Z,18.46
2023-05-05T08:47:32.499Z,18.57
2023-05-05T08:48:32.442Z,18.61
2023-05-05T08:49:32.416Z,18.64
2023-05-05T08:50:32.424Z,18.52
2023-05-05T08:51:32.396Z,18.28
2023-05-05T08:52:32.441Z,18.27
2023-05-05T08:53:32.390Z,18.40
2023-05-05T08:54:33.229Z,18.46
2023-05-05T08:55:32.360Z,18.52
2023-05-05T08:56:32.337Z,18.33
2023-05-05T08:57:32.339Z,18.49
2023-05-05T08:58:32.305Z,18.62
2023-05-05T08:59:32.315Z,18.58
2023-05-05T09:00:32.322Z,18.50
2023-05-05T09:01:32.375Z,18.49
2023-05-05T09:02:32.351Z,18.64
2023-05-05T09:03:32.340Z,18.83
2023-05-05T09:04:32.273Z,19.05
2023-05-05T09:05:32.303Z,19.25
2023-05-05T09:06:32.229Z,19.28
2023-05-05T09:07:32.215Z,19.40
2023-05-05T09:08:32.204Z,19.53
2023-05-05T09:09:32.226Z,19.69
2023-05-05T09:10:32.220Z,19.40
2023-05-05T09:11:32.274Z,19.31
2023-05-05T09:12:32.191Z,19.29
2023-05-05T09:13:32.161Z,19.33
2023-05-05T09:14:32.751Z,19.33
2023-05-05T09:15:32.133Z,19.15
2023-05-05T09:16:32.182Z,19.23
2023-05-05T09:17:32.136Z,19.25
2023-05-05T09:18:32.095Z,19.18
2023-05-05T09:19:32.149Z,19.24
2023-05-05T09:20:32.072Z,19.38
2023-05-05T09:21:32.087Z,19.50
2023-05-05T09:22:32.061Z,19.58
2023-05-05T09:23:32.053Z,19.68
2023-05-05T09:24:32.033Z,19.80
2023-05-05T09:25:32.024Z,19.98
2023-05-05T09:26:32.053Z,20.02
2023-05-05T09:27:32.002Z,20.10
2023-05-05T09:28:31.991Z,20.33
2023-05-05T09:29:31.986Z,20.47
2023-05-05T09:30:31.968Z,20.79
2023-05-05T09:31:32.015Z,20.95
2023-05-05T09:32:31.973Z,21.14
2023-05-05T09:33:31.961Z,21.32
2023-05-05T09:34:31.948Z,21.42
2023-05-05T09:35:31.916Z,21.27
2023-05-05T09:36:31.938Z,20.99
2023-05-05T09:37:31.919Z,20.72
2023-05-05T09:38:31.879Z,20.42
2023-05-05T09:39:31.873Z,20.41
2023-05-05T09:40:31.866Z,20.49
2023-05-05T09:41:52.895Z,20.61
2023-05-05T09:42:31.852Z,20.33
2023-05-05T09:43:31.835Z,20.12
2023-05-05T09:44:31.826Z,20.06
2023-05-05T09:45:31.821Z,19.90
2023-05-05T09:46:31.838Z,19.87
2023-05-05T09:47:32.927Z,19.87
2023-05-05T09:48:31.811Z,19.83
2023-05-05T09:49:31.813Z,20.02
2023-05-05T09:50:32.781Z,20.18
2023-05-05T09:51:31.763Z,20.21
2023-05-05T09:52:31.718Z,20.34
2023-05-05T09:53:31.714Z,20.47
2023-05-05T09:54:31.698Z,20.66
2023-05-05T09:55:31.795Z,20.83
2023-05-05T09:56:31.686Z,21.09
2023-05-05T09:57:31.674Z,21.26
2023-05-05T09:58:31.741Z,21.34
2023-05-05T09:59:31.700Z,21.16
2023-05-05T10:00:31.628Z,20.89
2023-05-05T10:01:31.650Z,20.59
2023-05-05T10:02:31.671Z,20.33
2023-05-05T10:03:31.595Z,20.09
2023-05-05T10:04:31.637Z,19.78
2023-05-05T10:05:31.586Z,19.72
2023-05-05T10:06:31.573Z,19.79
2023-05-05T10:07:31.570Z,19.87
2023-05-05T10:08:31.602Z,20.06
2023-05-05T10:09:31.514Z,20.35
2023-05-05T10:10:31.509Z,20.59
2023-05-05T10:11:31.507Z,20.80
2023-05-05T10:12:31.545Z,20.93
2023-05-05T10:13:31.569Z,21.14
2023-05-05T10:14:31.494Z,21.29
2023-05-05T10:15:31.462Z,21.29
2023-05-05T10:16:31.531Z,21.32
2023-05-05T10:17:31.550Z,21.30
2023-05-05T10:18:31.474Z,21.23
2023-05-05T10:19:31.419Z,20.77
2023-05-05T10:20:31.671Z,20.64
2023-05-05T10:21:31.426Z,20.62
2023-05-05T10:22:31.390Z,20.69
2023-05-05T10:23:31.387Z,20.81
2023-05-05T10:24:31.361Z,20.79
2023-05-05T10:25:31.360Z,20.83
2023-05-05T10:26:31.352Z,20.69
2023-05-05T10:27:31.347Z,20.56
2023-05-05T10:28:31.326Z,20.65
2023-05-05T10:29:31.297Z,20.53
2023-05-05T10:30:31.301Z,20.61
2023-05-05T10:31:31.345Z,20.64
2023-05-05T10:33:32.333Z,20.87
2023-05-05T10:34:31.283Z,20.86
2023-05-05T10:35:31.243Z,20.84
2023-05-05T10:36:31.233Z,21.02
2023-05-05T10:37:31.220Z,20.96
2023-05-05T10:38:31.296Z,20.80
2023-05-05T10:39:31.212Z,20.80
2023-05-05T10:40:31.187Z,20.90
2023-05-05T10:41:31.173Z,21.08
2023-05-05T10:42:31.188Z,21.36
2023-05-05T10:43:31.155Z,21.64
2023-05-05T10:44:31.176Z,21.64
2023-05-05T10:45:35.411Z,21.76
2023-05-05T10:46:31.191Z,21.85
2023-05-05T10:47:31.116Z,21.56
2023-05-05T10:48:31.116Z,21.74
2023-05-05T10:49:31.118Z,21.92
2023-05-05T10:50:31.079Z,21.92
2023-05-05T10:51:39.878Z,21.88
2023-05-05T10:52:31.226Z,22.02
2023-05-05T10:53:31.051Z,22.09
2023-05-05T10:54:31.084Z,22.13
2023-05-05T10:55:31.029Z,21.95
2023-05-05T10:56:31.022Z,21.85
2023-05-05T10:57:31.016Z,22.09
2023-05-05T10:58:30.995Z,22.43
2023-05-05T10:59:30.999Z,22.64
2023-05-05T11:00:30.963Z,22.82
2023-05-05T11:01:30.992Z,22.90
2023-05-05T11:02:30.993Z,23.05
2023-05-05T11:03:30.982Z,22.96
2023-05-05T11:04:30.954Z,22.67
2023-05-05T11:05:30.922Z,22.59
2023-05-05T11:06:30.905Z,22.72
2023-05-05T11:07:30.889Z,22.86
2023-05-05T11:08:30.898Z,23.05
2023-05-05T11:09:30.895Z,22.96
2023-05-05T11:10:30.876Z,22.87
2023-05-05T11:11:30.844Z,22.92
2023-05-05T11:12:30.880Z,23.19
2023-05-05T11:13:30.824Z,23.45
2023-05-05T11:14:30.828Z,23.60
2023-05-05T11:15:30.826Z,23.71
2023-05-05T11:16:30.838Z,23.62
2023-05-05T11:17:30.817Z,23.72
2023-05-05T11:18:30.777Z,23.46
2023-05-05T11:19:30.773Z,23.31
2023-05-05T11:20:30.753Z,23.35
2023-05-05T11:21:30.749Z,23.32
2023-05-05T11:22:30.726Z,23.34
2023-05-05T11:23:30.715Z,23.53
2023-05-05T11:24:30.711Z,23.53
2023-05-05T11:25:30.688Z,23.72
2023-05-05T11:26:30.703Z,23.68
2023-05-05T11:27:30.669Z,23.53
2023-05-05T11:28:30.652Z,23.55
2023-05-05T11:29:30.645Z,23.61
2023-05-05T11:30:30.657Z,23.45
2023-05-05T11:31:30.687Z,23.47
2023-05-05T11:32:30.654Z,23.49
2023-05-05T11:33:30.659Z,23.01
2023-05-05T11:34:30.591Z,22.57
2023-05-05T11:35:30.593Z,22.43
2023-05-05T11:36:30.572Z,22.34
2023-05-05T11:37:30.567Z,22.22
2023-05-05T11:38:30.584Z,22.10
2023-05-05T11:39:30.527Z,22.09
2023-05-05T11:40:30.548Z,22.12
2023-05-05T11:41:30.524Z,21.91
2023-05-05T11:42:30.575Z,22.01
2023-05-05T11:43:30.489Z,22.10
2023-05-05T11:44:30.470Z,22.10
2023-05-05T11:45:30.470Z,22.20
2023-05-05T11:46:30.517Z,22.39
2023-05-05T11:47:30.536Z,22.60
2023-05-05T11:48:30.451Z,22.60
2023-05-05T11:49:30.425Z,22.28
2023-05-05T11:50:30.432Z,22.32
2023-05-05T11:51:30.403Z,22.50
2023-05-05T11:52:30.410Z,22.54
2023-05-05T11:53:30.380Z,22.59
2023-05-05T11:54:30.394Z,22.71
2023-05-05T11:55:30.344Z,22.83
2023-05-05T11:56:30.349Z,22.87
2023-05-05T11:57:30.347Z,22.67
2023-05-05T11:58:30.337Z,22.83
2023-05-05T11:59:30.307Z,23.01
2023-05-05T12:00:30.317Z,23.14
2023-05-05T12:01:30.308Z,23.27
2023-05-05T12:02:30.435Z,23.52
2023-05-05T12:03:30.362Z,23.72
2023-05-05T12:04:30.282Z,23.87
2023-05-05T12:05:30.244Z,24.00
2023-05-05T12:06:30.226Z,24.12
2023-05-05T12:07:30.231Z,24.31
2023-05-05T12:08:30.214Z,24.22
2023-05-05T12:09:30.214Z,24.32
2023-05-05T12:10:30.189Z,24.38
2023-05-05T12:11:30.183Z,23.82
2023-05-05T12:12:30.183Z,23.55
2023-05-05T12:13:30.164Z,23.82
2023-05-05T12:14:30.146Z,24.19
2023-05-05T12:15:30.134Z,24.63
2023-05-05T12:16:30.149Z,25.06
2023-05-05T12:17:30.142Z,25.27
2023-05-05T12:18:30.100Z,25.64
2023-05-05T12:19:30.087Z,25.83
2023-05-05T12:20:30.088Z,26.06
2023-05-05T12:21:30.100Z,26.22
2023-05-05T12:22:30.059Z,26.36
2023-05-05T12:23:30.056Z,26.55
2023-05-05T12:24:30.031Z,26.37
2023-05-05T12:25:30.045Z,26.21
2023-05-05T12:26:30.023Z,25.93
2023-05-05T12:27:30.001Z,25.74
2023-05-05T12:28:30.022Z,25.87
2023-05-05T12:29:29.985Z,26.08
2023-05-05T12:30:30.068Z,26.35
2023-05-05T12:31:30.095Z,26.62
2023-05-05T12:32:29.960Z,26.42
2023-05-05T12:33:29.950Z,26.22
2023-05-05T12:34:29.929Z,25.71
2023-05-05T12:35:29.960Z,25.46
2023-05-05T12:36:30.658Z,25.27
2023-05-05T12:37:29.916Z,25.27
2023-05-05T12:38:29.879Z,25.10
2023-05-05T12:39:29.887Z,24.85
2023-05-05T12:40:29.865Z,24.49
2023-05-05T12:41:29.865Z,24.53
2023-05-05T12:42:29.886Z,24.97
2023-05-05T12:43:29.880Z,25.38
2023-05-05T12:44:29.834Z,25.61
2023-05-05T12:45:29.841Z,25.69
2023-05-05T12:46:29.866Z,25.61
2023-05-05T12:47:29.829Z,25.64
2023-05-05T12:48:29.816Z,25.77
2023-05-05T12:49:29.766Z,26.09
2023-05-05T12:50:29.767Z,26.31
2023-05-05T12:51:29.775Z,26.50
2023-05-05T12:52:29.783Z,25.54
2023-05-05T12:53:29.732Z,25.07
2023-05-05T12:54:29.725Z,25.35
2023-05-05T12:55:29.707Z,25.84
2023-05-05T12:56:29.697Z,25.90
2023-05-05T12:57:29.706Z,25.71
2023-05-05T12:58:29.707Z,25.61
2023-05-05T12:59:29.678Z,25.80
2023-05-05T13:00:29.658Z,26.05
2023-05-05T13:01:29.672Z,25.97
2023-05-05T13:02:29.656Z,26.37
2023-05-05T13:03:29.683Z,26.39
2023-05-05T13:04:29.624Z,26.67
2023-05-05T13:05:29.611Z,27.05
2023-05-05T13:06:29.579Z,27.67
2023-05-05T13:07:29.582Z,28.04
2023-05-05T13:08:29.579Z,28.32
2023-05-05T13:09:29.559Z,28.69
2023-05-05T13:10:29.547Z,28.93
2023-05-05T13:11:29.535Z,28.73
2023-05-05T13:12:29.532Z,29.07
2023-05-05T13:13:29.525Z,28.95
2023-05-05T13:14:29.496Z,28.78
2023-05-05T13:15:29.539Z,28.50
2023-05-05T13:16:29.483Z,28.54
2023-05-05T13:17:34.761Z,28.80
2023-05-05T13:18:29.471Z,28.72
2023-05-05T13:19:29.447Z,28.60
2023-05-05T13:20:29.439Z,28.68
2023-05-05T13:21:29.441Z,28.93
2023-05-05T13:22:29.421Z,29.18
2023-05-05T13:23:29.446Z,29.49
2023-05-05T13:24:42.337Z,29.79
2023-05-05T13:25:29.403Z,29.97
2023-05-05T13:26:29.408Z,30.29
2023-05-05T13:27:29.397Z,30.03
2023-05-05T13:28:29.369Z,30.19
2023-05-05T13:29:31.428Z,29.78
2023-05-05T13:30:29.342Z,30.09
2023-05-05T13:31:29.389Z,29.93
2023-05-05T13:32:29.344Z,30.18
2023-05-05T13:33:29.385Z,30.08
2023-05-05T13:34:29.365Z,29.50
2023-05-05T13:35:29.286Z,29.79
2023-05-05T13:36:29.311Z,29.86
2023-05-05T13:37:29.277Z,29.94
2023-05-05T13:38:29.291Z,29.90
2023-05-05T13:39:29.255Z,29.94
2023-05-05T13:40:29.350Z,30.02
2023-05-05T13:41:29.235Z,30.07
2023-05-05T13:42:29.215Z,30.30
2023-05-05T13:43:29.222Z,30.02
2023-05-05T13:44:29.226Z,29.92
2023-05-05T13:45:29.198Z,29.89
2023-05-05T13:46:29.232Z,29.92
2023-05-05T13:47:29.240Z,30.00
2023-05-05T13:48:29.165Z,29.82
2023-05-05T13:49:29.161Z,29.79
2023-05-05T13:50:29.133Z,29.35
2023-05-05T13:51:29.168Z,29.35
2023-05-05T13:52:31.696Z,29.43
2023-05-05T13:53:29.150Z,29.40
2023-05-05T13:54:29.101Z,29.62
2023-05-05T13:55:29.108Z,29.62
2023-05-05T13:56:29.079Z,29.77
2023-05-05T13:57:29.069Z,29.18
2023-05-05T13:58:29.078Z,29.11
2023-05-05T13:59:29.058Z,29.06
2023-05-05T14:00:29.048Z,29.40
2023-05-05T14:01:29.176Z,29.53
2023-05-05T14:02:29.070Z,29.63
2023-05-05T14:03:29.028Z,30.02
2023-05-05T14:04:29.124Z,30.05
2023-05-05T14:05:29.017Z,30.16
2023-05-05T14:06:28.973Z,30.47
2023-05-05T14:07:28.971Z,30.74
2023-05-05T14:08:28.979Z,30.91
2023-05-05T14:09:29.077Z,31.01
2023-05-05T14:10:28.945Z,30.19
2023-05-05T14:11:28.934Z,30.21
2023-05-05T14:12:29.018Z,30.36
2023-05-05T14:13:28.947Z,30.67
2023-05-05T14:14:28.929Z,30.21
2023-05-05T14:15:28.982Z,29.94
2023-05-05T14:16:28.895Z,30.03
2023-05-05T14:17:28.912Z,29.96
2023-05-05T14:18:28.943Z,29.23
2023-05-05T14:19:28.887Z,29.23
2023-05-05T14:20:28.855Z,29.03
2023-05-05T14:21:28.848Z,29.07
2023-05-05T14:22:28.823Z,29.33
2023-05-05T14:23:28.861Z,29.49
2023-05-05T14:24:28.864Z,29.29
2023-05-05T14:25:28.820Z,29.55
2023-05-05T14:26:28.793Z,29.78
2023-05-05T14:27:28.773Z,29.72
2023-05-05T14:28:28.780Z,29.78
2023-05-05T14:29:28.811Z,29.50
2023-05-05T14:30:28.762Z,29.29
2023-05-05T14:31:28.804Z,29.41
2023-05-05T14:32:28.751Z,29.53
2023-05-05T14:33:28.714Z,29.33
2023-05-05T14:34:28.757Z,29.18
2023-05-05T14:35:28.738Z,28.90
2023-05-05T14:36:28.681Z,28.26
2023-05-05T14:37:28.692Z,27.16
2023-05-05T14:38:28.757Z,27.17
2023-05-05T14:39:28.657Z,26.76
2023-05-05T14:40:28.689Z,26.77
2023-05-05T14:41:28.632Z,26.72
2023-05-05T14:42:28.622Z,26.52
2023-05-05T14:43:28.631Z,25.86
2023-05-05T14:44:28.601Z,25.47
2023-05-05T14:45:28.604Z,25.39
2023-05-05T14:46:28.642Z,25.72
2023-05-05T14:47:28.571Z,26.01
2023-05-05T14:48:28.561Z,26.20
2023-05-05T14:49:28.550Z,26.15
2023-05-05T14:50:28.560Z,26.02
2023-05-05T14:51:28.529Z,26.09
2023-05-05T14:52:28.574Z,25.94
2023-05-05T14:53:28.562Z,25.84
2023-05-05T14:54:29.104Z,25.77
2023-05-05T14:55:28.501Z,25.87
2023-05-05T14:56:28.492Z,25.86
2023-05-05T14:57:28.459Z,25.77
2023-05-05T14:58:28.474Z,25.59
2023-05-05T14:59:28.447Z,25.06
2023-05-05T15:00:28.455Z,25.17
2023-05-05T15:01:28.468Z,25.16
2023-05-05T15:02:28.472Z,24.98
2023-05-05T15:03:28.728Z,25.00
2023-05-05T15:04:28.397Z,25.07
2023-05-05T15:05:28.389Z,24.75
2023-05-05T15:06:28.368Z,24.77
2023-05-05T15:07:28.363Z,24.41
2023-05-05T15:08:28.343Z,24.50
2023-05-05T15:09:28.376Z,24.44
2023-05-05T15:10:28.343Z,24.77
2023-05-05T15:11:28.308Z,25.07
2023-05-05T15:12:28.322Z,25.00
2023-05-05T15:13:28.301Z,25.00
2023-05-05T15:14:28.350Z,24.91
2023-05-05T15:15:28.282Z,24.91
2023-05-05T15:16:28.350Z,25.07
2023-05-05T15:17:28.272Z,24.82
2023-05-05T15:18:28.243Z,24.67
2023-05-05T15:19:28.232Z,24.76
2023-05-05T15:20:28.225Z,24.94
2023-05-05T15:21:28.216Z,24.94
2023-05-05T15:22:28.203Z,24.79
2023-05-05T15:23:28.185Z,24.68
2023-05-05T15:24:28.278Z,24.69
2023-05-05T15:25:28.180Z,24.59
2023-05-05T15:26:28.184Z,24.64
2023-05-05T15:27:28.156Z,24.57
2023-05-05T15:28:28.158Z,24.52
2023-05-05T15:29:28.126Z,24.39
2023-05-05T15:30:28.108Z,24.39
2023-05-05T15:31:28.149Z,24.37
2023-05-05T15:32:28.105Z,24.35
2023-05-05T15:33:28.070Z,24.50
2023-05-05T15:34:28.126Z,24.37
2023-05-05T15:35:28.053Z,24.27
2023-05-05T15:36:28.054Z,24.17
2023-05-05T15:37:28.036Z,24.17
2023-05-05T15:38:28.018Z,23.98
2023-05-05T15:39:28.024Z,23.86
2023-05-05T15:40:27.991Z,24.17
2023-05-05T15:41:28.011Z,24.69
2023-05-05T15:42:27.970Z,25.15
2023-05-05T15:43:28.005Z,25.10
2023-05-05T15:44:27.961Z,25.31
2023-05-05T15:45:27.989Z,25.54
2023-05-05T15:46:27.963Z,25.77
2023-05-05T15:47:27.975Z,25.54
2023-05-05T15:48:27.918Z,25.06
2023-05-05T15:49:27.918Z,24.68
2023-05-05T15:50:27.929Z,23.80
2023-05-05T15:51:27.931Z,23.52
2023-05-05T15:52:27.864Z,23.34
2023-05-05T15:53:27.876Z,23.15
2023-05-05T15:54:27.851Z,23.01
2023-05-05T15:55:27.858Z,22.83
2023-05-05T15:56:27.886Z,22.56
2023-05-05T15:57:27.833Z,22.27
2023-05-05T15:58:27.872Z,22.06
2023-05-05T15:59:27.815Z,21.91
2023-05-05T16:00:27.785Z,21.64
2023-05-05T16:01:27.803Z,21.44
2023-05-05T16:02:27.862Z,21.39
2023-05-05T16:03:27.962Z,21.29
2023-05-05T16:04:27.776Z,21.23
2023-05-05T16:05:27.730Z,21.20
2023-05-05T16:06:27.724Z,21.21
2023-05-05T16:07:27.760Z,21.19
2023-05-05T16:08:27.691Z,21.19
2023-05-05T16:09:27.678Z,21.23
2023-05-05T16:10:27.687Z,21.32
2023-05-05T16:11:27.689Z,21.34
2023-05-05T16:12:27.678Z,21.26
2023-05-05T16:13:27.698Z,21.19
2023-05-05T16:14:27.618Z,21.16
2023-05-05T16:15:27.611Z,21.13
2023-05-05T16:16:27.643Z,21.05
2023-05-05T16:17:27.627Z,21.09
2023-05-05T16:18:27.579Z,21.06
2023-05-05T16:19:28.489Z,21.04
2023-05-05T16:20:27.557Z,21.02
2023-05-05T16:21:27.567Z,20.96
2023-05-05T16:22:27.553Z,20.80
2023-05-05T16:23:27.547Z,20.72
2023-05-05T16:24:27.522Z,20.64
2023-05-05T16:25:27.742Z,20.53
2023-05-05T16:26:27.506Z,20.50
2023-05-05T16:27:27.635Z,20.53
2023-05-05T16:28:27.472Z,20.56
2023-05-05T16:29:27.462Z,20.41
2023-05-05T16:30:27.453Z,20.27
2023-05-05T16:31:27.450Z,20.27
2023-05-05T16:32:27.490Z,20.18
2023-05-05T16:33:27.434Z,20.13
2023-05-05T16:34:27.404Z,20.09
2023-05-05T16:35:27.404Z,20.15
2023-05-05T16:36:27.394Z,20.15
2023-05-05T16:37:27.432Z,20.12
2023-05-05T16:38:27.714Z,20.09
2023-05-05T16:39:27.357Z,20.06
2023-05-05T16:40:27.328Z,20.08
2023-05-05T16:41:27.403Z,20.02
2023-05-05T16:42:27.325Z,19.95
2023-05-05T16:43:27.335Z,19.93
2023-05-05T16:44:27.300Z,19.84
2023-05-05T16:45:27.292Z,19.76
2023-05-05T16:46:27.301Z,19.73
2023-05-05T16:47:27.331Z,19.65
2023-05-05T16:48:27.278Z,19.60
2023-05-05T16:49:27.247Z,19.61
2023-05-05T16:50:27.236Z,19.58
2023-05-05T16:51:27.228Z,19.55
2023-05-05T16:52:27.234Z,19.51
2023-05-05T16:53:27.204Z,19.43